createdAt,value
2018-07-09T00:01:08.246Z,11.13
2018-07-09T00:03:36.338Z,10.13
2018-07-09T00:06:04.638Z,10.07
2018-07-09T00:08:32.700Z,9.73
2018-07-09T00:11:02.868Z,9.37
2018-07-09T00:13:31.885Z,8.90
2018-07-09T00:16:00.371Z,9.50
2018-07-09T00:18:28.408Z,12.20
2018-07-09T00:20:56.448Z,9.17
2018-07-09T00:23:24.476Z,9.33
2018-07-09T00:25:53.307Z,9.37
2018-07-09T00:28:21.781Z,11.07
2018-07-09T00:30:49.650Z,10.17
2018-07-09T00:33:18.003Z,9.33
2018-07-09T00:35:46.343Z,9.63
2018-07-09T00:38:14.332Z,9.50
2018-07-09T00:40:42.506Z,9.80
2018-07-09T00:43:10.450Z,9.00
2018-07-09T00:45:38.677Z,9.37
2018-07-09T00:48:06.513Z,8.93
2018-07-09T00:50:34.697Z,9.27
2018-07-09T00:53:03.068Z,9.30
2018-07-09T00:55:31.185Z,9.13
2018-07-09T00:57:59.676Z,10.07
2018-07-09T01:00:27.680Z,9.80
2018-07-09T01:02:59.627Z,8.90
2018-07-09T01:05:27.745Z,11.17
2018-07-09T01:07:55.884Z,11.57
2018-07-09T01:10:23.955Z,10.57
2018-07-09T01:12:51.910Z,9.67
2018-07-09T01:15:19.832Z,9.97
2018-07-09T01:17:59.548Z,9.70
2018-07-09T01:20:27.597Z,11.70
2018-07-09T01:22:55.477Z,9.67
2018-07-09T01:25:23.501Z,9.40
2018-07-09T01:27:51.599Z,10.23
2018-07-09T01:30:19.699Z,9.00
2018-07-09T01:32:47.610Z,9.70
2018-07-09T01:35:15.513Z,9.93
2018-07-09T01:37:43.426Z,9.67
2018-07-09T01:40:11.553Z,10.50
2018-07-09T01:42:39.756Z,8.80
2018-07-09T01:45:07.892Z,9.47
2018-07-09T01:47:36.143Z,10.00
2018-07-09T01:50:04.174Z,13.57
2018-07-09T01:52:32.327Z,10.17
2018-07-09T01:55:00.831Z,12.60
2018-07-09T01:57:28.893Z,10.60
2018-07-09T01:59:57.057Z,10.00
2018-07-09T02:02:25.064Z,9.80
2018-07-09T02:04:52.786Z,10.90
2018-07-09T02:07:20.732Z,9.77
2018-07-09T02:09:48.985Z,10.53
2018-07-09T02:12:16.960Z,10.30
2018-07-09T02:14:44.973Z,10.33
2018-07-09T02:17:12.805Z,11.20
2018-07-09T02:19:40.786Z,8.80
2018-07-09T02:22:08.668Z,12.57
2018-07-09T02:24:36.801Z,14.57
2018-07-09T02:27:04.800Z,9.50
2018-07-09T02:29:32.960Z,10.17
2018-07-09T02:32:01.076Z,9.60
2018-07-09T02:34:29.158Z,9.60
2018-07-09T02:36:57.816Z,9.33
2018-07-09T02:39:25.678Z,9.20
2018-07-09T02:41:53.838Z,9.80
2018-07-09T02:44:23.040Z,13.63
2018-07-09T02:46:51.446Z,9.00
2018-07-09T02:49:19.848Z,9.07
2018-07-09T02:51:48.285Z,9.70
2018-07-09T02:54:16.775Z,11.50
2018-07-09T02:56:44.757Z,10.47
2018-07-09T02:59:13.308Z,10.43
2018-07-09T03:01:41.184Z,9.37
2018-07-09T03:04:09.913Z,10.03
2018-07-09T03:06:37.800Z,12.03
2018-07-09T03:09:06.676Z,9.80
2018-07-09T03:11:35.040Z,9.17
2018-07-09T03:14:03.019Z,9.40
2018-07-09T03:16:31.281Z,11.60
2018-07-09T03:18:59.635Z,10.00
2018-07-09T03:21:27.729Z,9.63
2018-07-09T03:23:55.674Z,12.13
2018-07-09T03:26:23.640Z,11.23
2018-07-09T03:28:51.793Z,10.10
2018-07-09T03:31:19.807Z,10.60
2018-07-09T03:33:47.974Z,10.40
2018-07-09T03:36:17.403Z,9.23
2018-07-09T03:38:45.162Z,9.53
2018-07-09T03:41:13.259Z,12.60
2018-07-09T03:43:41.351Z,9.90
2018-07-09T03:46:09.313Z,9.87
2018-07-09T03:48:37.363Z,10.20
2018-07-09T03:51:05.523Z,10.53
2018-07-09T03:53:33.755Z,9.73
2018-07-09T03:56:02.010Z,9.37
2018-07-09T03:58:30.069Z,10.43
2018-07-09T04:00:57.832Z,9.47
2018-07-09T04:03:26.626Z,9.37
2018-07-09T04:05:54.705Z,9.90
2018-07-09T04:08:22.669Z,9.13
2018-07-09T04:10:50.501Z,8.60
2018-07-09T04:13:18.488Z,11.53
2018-07-09T04:15:46.352Z,9.80
2018-07-09T04:18:14.238Z,9.13
2018-07-09T04:20:42.351Z,10.47
2018-07-09T04:23:10.229Z,10.57
2018-07-09T04:25:38.263Z,11.50
2018-07-09T04:28:06.245Z,9.20
2018-07-09T04:30:34.222Z,8.50
2018-07-09T04:33:02.369Z,10.57
2018-07-09T04:35:30.363Z,9.47
2018-07-09T04:37:58.385Z,9.37
2018-07-09T04:40:26.631Z,9.47
2018-07-09T04:42:54.534Z,9.17
2018-07-09T04:45:22.608Z,8.47
2018-07-09T04:47:50.564Z,10.07
2018-07-09T04:50:18.502Z,9.30
2018-07-09T04:52:46.427Z,8.97
2018-07-09T04:55:14.489Z,9.70
2018-07-09T04:57:42.467Z,11.27
2018-07-09T05:00:10.436Z,9.60
2018-07-09T05:02:38.454Z,11.20
2018-07-09T05:05:06.482Z,11.50
2018-07-09T05:07:34.504Z,11.07
2018-07-09T05:10:02.902Z,11.33
2018-07-09T05:12:30.898Z,13.20
2018-07-09T05:14:59.050Z,8.80
2018-07-09T05:17:27.011Z,10.53
2018-07-09T05:19:54.998Z,15.70
2018-07-09T05:22:22.778Z,9.07
2018-07-09T05:24:51.005Z,9.50
2018-07-09T05:27:18.943Z,13.47
2018-07-09T05:29:46.882Z,9.37
2018-07-09T05:32:14.782Z,11.53
2018-07-09T05:34:42.786Z,12.70
2018-07-09T05:37:10.850Z,9.50
2018-07-09T05:39:39.663Z,9.00
2018-07-09T05:42:07.649Z,10.80
2018-07-09T05:44:36.197Z,10.10
2018-07-09T05:47:04.346Z,12.10
2018-07-09T05:49:32.776Z,7.87
2018-07-09T05:52:01.068Z,8.30
2018-07-09T05:54:29.108Z,8.03
2018-07-09T05:56:57.283Z,7.80
2018-07-09T05:59:25.286Z,5.90
2018-07-09T06:01:53.274Z,4.37
2018-07-09T06:04:21.371Z,5.17
2018-07-09T06:06:50.247Z,6.40
2018-07-09T06:09:18.147Z,10.30
2018-07-09T06:11:46.165Z,6.03
2018-07-09T06:14:14.163Z,5.63
2018-07-09T06:16:42.222Z,5.27
2018-07-09T06:19:10.180Z,4.10
2018-07-09T06:21:38.105Z,3.73
2018-07-09T06:24:06.310Z,5.00
2018-07-09T06:26:34.385Z,4.17
2018-07-09T06:29:02.519Z,4.47
2018-07-09T06:31:30.770Z,4.73
2018-07-09T06:33:58.865Z,3.33
2018-07-09T06:36:27.375Z,4.40
2018-07-09T06:38:55.461Z,4.37
2018-07-09T06:41:23.446Z,4.13
2018-07-09T06:43:51.698Z,4.70
2018-07-09T06:46:19.887Z,4.10
2018-07-09T06:48:47.821Z,3.93
2018-07-09T06:51:15.761Z,6.37
2018-07-09T06:53:43.677Z,5.77
2018-07-09T06:56:11.677Z,6.03
2018-07-09T06:58:39.646Z,6.43
2018-07-09T07:01:07.613Z,4.70
2018-07-09T07:03:35.643Z,3.97
2018-07-09T07:06:04.122Z,4.60
2018-07-09T07:08:32.532Z,7.30
2018-07-09T07:11:00.686Z,7.03
2018-07-09T07:13:28.832Z,8.03
2018-07-09T07:15:56.842Z,5.03
2018-07-09T07:18:24.745Z,7.13
2018-07-09T07:20:52.899Z,4.73
2018-07-09T07:23:21.993Z,3.57
2018-07-09T07:25:50.035Z,5.90
2018-07-09T07:28:18.295Z,6.30
2018-07-09T07:30:47.998Z,3.30
2018-07-09T07:33:19.256Z,6.00
2018-07-09T07:35:47.354Z,4.53
2018-07-09T07:38:15.343Z,6.73
2018-07-09T07:40:46.743Z,7.13
2018-07-09T07:43:14.805Z,7.47
2018-07-09T07:45:42.936Z,4.20
2018-07-09T07:48:10.960Z,4.83
2018-07-09T07:50:38.928Z,5.67
2018-07-09T07:53:06.820Z,4.73
2018-07-09T07:55:34.929Z,4.00
2018-07-09T07:58:03.036Z,5.07
2018-07-09T08:00:31.268Z,3.67
2018-07-09T08:02:59.499Z,5.37
2018-07-09T08:05:27.375Z,6.07
2018-07-09T08:07:55.331Z,4.50
2018-07-09T08:10:23.469Z,4.13
2018-07-09T08:15:19.418Z,4.33
2018-07-09T08:17:47.502Z,4.20
2018-07-09T08:20:15.584Z,5.27
2018-07-09T08:22:43.478Z,4.97
2018-07-09T08:25:11.758Z,8.43
2018-07-09T08:27:39.519Z,3.80
2018-07-09T08:30:07.682Z,2.97
2018-07-09T08:32:36.190Z,5.73
2018-07-09T08:35:04.508Z,4.00
2018-07-09T08:37:32.577Z,4.03
2018-07-09T08:40:00.856Z,2.43
2018-07-09T08:42:28.834Z,5.90
2018-07-09T08:44:56.996Z,6.93
2018-07-09T08:47:24.974Z,2.70
2018-07-09T08:49:52.925Z,5.47
2018-07-09T08:52:21.966Z,6.80
2018-07-09T08:54:49.946Z,4.10
2018-07-09T08:57:18.053Z,4.53
2018-07-09T08:59:46.011Z,4.90
2018-07-09T09:02:18.066Z,3.93
2018-07-09T09:04:46.206Z,3.57
2018-07-09T09:07:14.067Z,3.73
2018-07-09T09:09:42.026Z,5.63
2018-07-09T09:12:10.225Z,3.07
2018-07-09T09:14:38.308Z,6.83
2018-07-09T09:17:06.449Z,3.50
2018-07-09T09:19:34.508Z,3.13
2018-07-09T09:22:02.642Z,5.07
2018-07-09T09:24:32.881Z,5.70
2018-07-09T09:27:01.006Z,3.17
2018-07-09T09:29:29.061Z,2.90
2018-07-09T09:31:57.104Z,9.07
2018-07-09T09:34:25.365Z,4.00
2018-07-09T09:36:53.270Z,4.63
2018-07-09T09:39:21.323Z,4.40
2018-07-09T09:41:49.272Z,4.80
2018-07-09T09:44:17.181Z,4.07
2018-07-09T09:46:45.168Z,8.03
2018-07-09T09:49:13.079Z,5.63
2018-07-09T09:51:41.081Z,5.33
2018-07-09T09:54:09.468Z,5.00
2018-07-09T09:56:37.409Z,3.83
2018-07-09T09:59:05.656Z,5.57
2018-07-09T10:01:33.568Z,4.53
2018-07-09T10:04:01.610Z,4.90
2018-07-09T10:06:29.702Z,2.80
2018-07-09T10:08:57.948Z,4.20
2018-07-09T10:11:25.913Z,4.07
2018-07-09T10:13:54.017Z,7.17
2018-07-09T10:16:23.500Z,4.60
2018-07-09T10:18:51.571Z,3.13
2018-07-09T10:21:19.449Z,3.30
2018-07-09T10:23:47.418Z,2.50
2018-07-09T10:26:15.421Z,5.23
2018-07-09T10:28:43.417Z,5.03
2018-07-09T10:31:11.493Z,4.47
2018-07-09T10:33:39.358Z,3.90
2018-07-09T10:36:07.470Z,3.33
2018-07-09T10:38:35.489Z,6.00
2018-07-09T10:41:03.845Z,4.40
2018-07-09T10:43:32.789Z,4.13
2018-07-09T10:46:01.136Z,3.07
2018-07-09T10:48:30.943Z,3.33
2018-07-09T10:51:00.313Z,3.77
2018-07-09T10:53:29.252Z,3.77
2018-07-09T10:55:58.167Z,5.90
2018-07-09T10:58:27.831Z,7.77
2018-07-09T11:00:56.484Z,3.87
2018-07-09T11:03:24.639Z,4.03
2018-07-09T11:05:52.825Z,4.37
2018-07-09T11:08:26.001Z,5.60
2018-07-09T11:10:53.988Z,4.43
2018-07-09T11:13:21.992Z,4.07
2018-07-09T11:15:51.371Z,3.27
2018-07-09T11:18:19.373Z,3.60
2018-07-09T11:20:47.550Z,6.37
2018-07-09T11:23:15.494Z,4.27
2018-07-09T11:25:43.504Z,2.77
2018-07-09T11:28:11.561Z,4.43
2018-07-09T11:30:39.555Z,5.20
2018-07-09T11:33:07.862Z,5.47
2018-07-09T11:35:36.030Z,4.00
2018-07-09T11:38:05.421Z,3.23
2018-07-09T11:40:33.806Z,5.87
2018-07-09T11:43:01.820Z,5.23
2018-07-09T11:45:30.308Z,4.20
2018-07-09T11:47:59.268Z,3.40
2018-07-09T11:50:28.908Z,2.37
2018-07-09T11:52:58.167Z,2.93
2018-07-09T11:55:26.931Z,4.23
2018-07-09T11:57:55.079Z,7.20
2018-07-09T12:00:23.076Z,4.23
2018-07-09T12:02:51.161Z,4.03
2018-07-09T12:05:19.042Z,3.90
2018-07-09T12:07:47.110Z,1.93
2018-07-09T12:10:15.125Z,4.00
2018-07-09T12:12:43.084Z,2.20
2018-07-09T12:15:11.017Z,2.87
2018-07-09T12:17:38.954Z,2.07
2018-07-09T12:20:06.942Z,2.87
2018-07-09T12:22:35.038Z,2.70
2018-07-09T12:25:04.021Z,4.83
2018-07-09T12:27:32.066Z,1.80
2018-07-09T12:30:00.177Z,2.43
2018-07-09T12:32:28.248Z,4.50
2018-07-09T12:34:56.579Z,2.63
2018-07-09T12:37:24.663Z,2.90
2018-07-09T12:40:02.994Z,3.87
2018-07-09T12:42:31.074Z,2.60
2018-07-09T12:44:59.254Z,1.80
2018-07-09T12:47:27.336Z,4.07
2018-07-09T12:50:02.207Z,3.33
2018-07-09T12:52:30.734Z,1.70
2018-07-09T12:54:58.888Z,1.70
2018-07-09T12:57:27.253Z,1.57
2018-07-09T12:59:55.638Z,3.27
2018-07-09T13:02:23.696Z,3.03
2018-07-09T13:04:51.773Z,3.73
2018-07-09T13:07:19.760Z,2.23
2018-07-09T13:09:47.681Z,2.87
2018-07-09T13:12:23.057Z,2.87
2018-07-09T13:14:51.274Z,2.33
2018-07-09T13:17:20.600Z,2.33
2018-07-09T13:19:48.702Z,2.40
2018-07-09T13:22:16.680Z,2.10
2018-07-09T13:24:48.966Z,2.27
2018-07-09T13:27:17.081Z,3.27
2018-07-09T13:29:45.639Z,3.30
2018-07-09T13:32:13.996Z,1.90
2018-07-09T13:34:42.806Z,3.63
2018-07-09T13:37:11.061Z,4.63
2018-07-09T13:39:39.168Z,2.23
2018-07-09T13:42:07.450Z,1.67
2018-07-09T13:44:35.710Z,1.47
2018-07-09T13:47:03.896Z,1.40
2018-07-09T13:49:32.234Z,5.73
2018-07-09T13:52:00.438Z,2.33
2018-07-09T13:54:29.035Z,1.60
2018-07-09T13:57:03.626Z,3.87
2018-07-09T13:59:31.644Z,1.67
2018-07-09T14:01:59.668Z,1.50
2018-07-09T14:04:27.564Z,2.70
2018-07-09T14:06:59.041Z,1.97
2018-07-09T14:09:27.155Z,1.80
2018-07-09T14:11:55.163Z,1.77
2018-07-09T14:14:23.628Z,1.30
2018-07-09T14:16:51.560Z,3.43
2018-07-09T14:20:38.324Z,4.00
2018-07-09T14:23:07.458Z,1.00
2018-07-09T14:25:35.638Z,1.57
2018-07-09T14:28:03.712Z,1.37
2018-07-09T14:30:31.776Z,2.87
2018-07-09T14:32:59.994Z,1.70
2018-07-09T14:35:28.057Z,2.40
2018-07-09T14:37:57.467Z,1.77
2018-07-09T14:40:26.206Z,1.10
2018-07-09T14:42:54.112Z,3.03
2018-07-09T14:45:22.186Z,1.20
2018-07-09T14:47:50.179Z,1.83
2018-07-09T14:50:18.094Z,3.40
2018-07-09T14:52:46.451Z,1.70
2018-07-09T14:55:14.591Z,1.80
2018-07-09T14:57:42.578Z,1.13
2018-07-09T15:00:10.713Z,2.67
2018-07-09T15:02:39.164Z,0.87
2018-07-09T15:05:19.341Z,3.23
2018-07-09T15:07:47.436Z,2.80
2018-07-09T15:10:15.386Z,4.23
2018-07-09T15:12:43.609Z,0.70
2018-07-09T15:15:12.241Z,2.87
2018-07-09T15:17:40.342Z,1.57
2018-07-09T15:20:09.536Z,2.73
2018-07-09T15:22:37.640Z,1.40
2018-07-09T15:25:06.590Z,1.67
2018-07-09T15:27:34.449Z,3.37
2018-07-09T15:30:02.532Z,1.80
2018-07-09T15:32:43.179Z,3.20
2018-07-09T15:35:12.090Z,1.13
2018-07-09T15:37:40.139Z,1.13
2018-07-09T15:40:08.315Z,1.17
2018-07-09T15:42:54.516Z,2.70
2018-07-09T15:45:22.285Z,2.03
2018-07-09T15:47:50.143Z,1.20
2018-07-09T15:50:27.855Z,2.00
2018-07-09T15:52:56.249Z,2.37
2018-07-09T15:55:24.241Z,2.17
2018-07-09T15:57:52.458Z,1.23
2018-07-09T16:00:20.658Z,1.10
2018-07-09T16:02:48.628Z,1.57
2018-07-09T16:05:17.589Z,1.33
2018-07-09T16:07:45.557Z,2.90
2018-07-09T16:10:13.595Z,1.60
2018-07-09T16:12:41.722Z,0.80
2018-07-09T16:15:09.985Z,1.03
2018-07-09T16:17:38.227Z,1.60
2018-07-09T16:20:14.447Z,2.50
2018-07-09T16:22:56.937Z,2.50
2018-07-09T16:25:25.054Z,2.10
2018-07-09T16:27:52.968Z,1.73
2018-07-09T16:30:20.867Z,2.67
2018-07-09T16:32:48.865Z,2.40
2018-07-09T16:35:16.725Z,1.57
2018-07-09T16:37:44.795Z,1.17
2018-07-09T16:40:12.801Z,0.80
2018-07-09T16:42:40.776Z,1.43
2018-07-09T16:45:08.539Z,1.93
2018-07-09T16:47:36.469Z,1.77
2018-07-09T16:50:04.442Z,1.60
2018-07-09T16:52:33.303Z,3.57
2018-07-09T16:55:01.761Z,3.70
2018-07-09T16:57:30.288Z,1.93
2018-07-09T16:59:58.887Z,1.83
2018-07-09T17:02:27.353Z,1.50
2018-07-09T17:04:55.567Z,2.30
2018-07-09T17:07:23.530Z,1.93
2018-07-09T17:09:51.541Z,1.40
2018-07-09T17:12:19.551Z,3.40
2018-07-09T17:14:47.639Z,2.67
2018-07-09T17:17:15.682Z,1.60
2018-07-09T17:19:44.848Z,1.60
2018-07-09T17:22:12.785Z,1.60
2018-07-09T17:24:40.961Z,2.43
2018-07-09T17:27:09.069Z,1.97
2018-07-09T17:29:36.986Z,2.50
2018-07-09T17:32:05.560Z,1.87
2018-07-09T17:34:34.046Z,2.13
2018-07-09T17:37:02.394Z,2.23
2018-07-09T17:39:30.542Z,2.73
2018-07-09T17:41:59.249Z,2.50
2018-07-09T17:44:28.352Z,2.03
2018-07-09T17:46:57.249Z,4.30
2018-07-09T17:49:25.298Z,3.67
2018-07-09T17:51:53.455Z,6.73
2018-07-09T17:54:21.667Z,5.80
2018-07-09T17:56:49.559Z,3.40
2018-07-09T17:59:17.561Z,3.30
2018-07-09T18:01:45.686Z,4.90
2018-07-09T18:04:13.682Z,3.00
2018-07-09T18:06:41.986Z,6.47
2018-07-09T18:09:10.887Z,3.73
2018-07-09T18:11:38.944Z,4.13
2018-07-09T18:14:07.120Z,7.03
2018-07-09T18:16:36.097Z,3.77
2018-07-09T18:19:04.104Z,3.13
2018-07-09T18:21:33.524Z,7.77
2018-07-09T18:24:02.061Z,4.60
2018-07-09T18:26:30.408Z,4.00
2018-07-09T18:28:58.923Z,2.73
2018-07-09T18:31:28.729Z,3.03
2018-07-09T18:33:57.159Z,3.37
2018-07-09T18:36:25.208Z,4.73
2018-07-09T18:38:53.304Z,5.53
2018-07-09T18:41:21.425Z,3.30
2018-07-09T18:43:49.474Z,3.10
2018-07-09T18:46:21.570Z,5.50
2018-07-09T18:48:49.826Z,2.63
2018-07-09T18:51:18.984Z,6.57
2018-07-09T18:53:49.408Z,3.10
2018-07-09T18:56:17.890Z,3.77
2018-07-09T18:58:45.976Z,4.00
2018-07-09T19:01:18.507Z,3.87
2018-07-09T19:03:46.574Z,7.23
2018-07-09T19:06:26.378Z,6.23
2018-07-09T19:08:59.554Z,5.17
2018-07-09T19:11:28.191Z,3.33
2018-07-09T19:13:56.605Z,2.73
2018-07-09T19:16:31.539Z,2.47
2018-07-09T19:19:10.725Z,2.37
2018-07-09T19:21:51.931Z,5.33
2018-07-09T19:24:18.701Z,2.80
2018-07-09T19:26:45.561Z,2.30
2018-07-09T19:29:12.311Z,5.40
2018-07-09T19:31:39.074Z,4.13
2018-07-09T19:34:06.154Z,2.80
2018-07-09T19:36:32.941Z,3.77
2018-07-09T19:38:59.703Z,2.43
2018-07-09T19:41:26.904Z,2.77
2018-07-09T19:43:54.741Z,2.40
2018-07-09T19:46:21.877Z,2.23
2018-07-09T19:48:50.505Z,5.97
2018-07-09T19:51:17.652Z,4.13
2018-07-09T19:53:44.362Z,6.00
2018-07-09T19:56:11.197Z,7.47
2018-07-09T19:58:37.831Z,3.40
2018-07-09T20:01:04.487Z,5.60
2018-07-09T20:03:31.422Z,4.67
2018-07-09T20:06:00.105Z,2.57
2018-07-09T20:08:32.658Z,2.63
2018-07-09T20:11:05.007Z,2.83
2018-07-09T20:14:03.356Z,3.40
2018-07-09T20:17:35.465Z,2.77
2018-07-09T20:20:02.560Z,2.83
2018-07-09T20:22:29.501Z,3.70
2018-07-09T20:24:56.856Z,4.50
2018-07-09T20:27:23.617Z,4.03
2018-07-09T20:29:50.297Z,3.23
2018-07-09T20:32:20.106Z,3.43
2018-07-09T20:34:47.253Z,5.73
2018-07-09T20:37:13.952Z,3.80
2018-07-09T20:39:40.594Z,2.90
2018-07-09T20:42:07.388Z,4.10
2018-07-09T20:44:34.139Z,5.00
2018-07-09T20:47:00.838Z,4.67
2018-07-09T20:49:27.594Z,2.93
2018-07-09T20:51:54.333Z,2.97
2018-07-09T20:54:20.972Z,4.23
2018-07-09T20:56:47.579Z,3.33
2018-07-09T20:59:14.157Z,4.27
2018-07-09T21:01:40.845Z,2.97
2018-07-09T21:04:12.908Z,2.90
2018-07-09T21:06:39.648Z,2.90
2018-07-09T21:09:06.282Z,3.73
2018-07-09T21:11:33.005Z,3.67
2018-07-09T21:13:59.689Z,3.80
2018-07-09T21:16:26.372Z,3.67
2018-07-09T21:18:52.978Z,5.07
2018-07-09T21:21:19.664Z,3.60
2018-07-09T21:23:46.376Z,4.93
2018-07-09T21:26:13.032Z,5.07
2018-07-09T21:28:42.961Z,5.40
2018-07-09T21:31:09.586Z,5.37
2018-07-09T21:33:36.409Z,4.97
2018-07-09T21:36:03.213Z,5.97
2018-07-09T21:38:29.813Z,4.10
2018-07-09T21:40:56.578Z,3.17
2018-07-09T21:43:23.645Z,4.07
2018-07-09T21:45:50.344Z,5.10
2018-07-09T21:48:17.438Z,4.50
2018-07-09T21:50:44.044Z,5.53
2018-07-09T21:53:11.038Z,7.20
2018-07-09T21:55:37.753Z,4.60
2018-07-09T21:58:04.461Z,4.37
2018-07-09T22:00:31.692Z,3.67
2018-07-09T22:02:58.427Z,3.13
2018-07-09T22:05:25.383Z,4.30
2018-07-09T22:07:52.102Z,3.87
2018-07-09T22:10:18.772Z,3.87
2018-07-09T22:12:45.590Z,6.07
2018-07-09T22:15:12.347Z,3.83
2018-07-09T22:17:39.536Z,4.00
2018-07-09T22:20:06.402Z,3.23
2018-07-09T22:22:33.408Z,3.07
2018-07-09T22:25:00.090Z,4.37
2018-07-09T22:27:26.770Z,2.93
2018-07-09T22:29:53.460Z,5.57
2018-07-09T22:32:21.625Z,5.50
2018-07-09T22:34:49.549Z,4.60
2018-07-09T22:37:17.758Z,3.13
2018-07-09T22:39:45.869Z,3.20
2018-07-09T22:42:13.843Z,3.73
2018-07-09T22:44:41.907Z,3.30
2018-07-09T22:47:09.884Z,5.00
2018-07-09T22:49:37.947Z,3.43
2018-07-09T22:52:06.350Z,4.03
2018-07-09T22:54:34.430Z,4.47
2018-07-09T22:57:02.319Z,3.40
2018-07-09T22:59:30.381Z,3.30
2018-07-09T23:01:58.337Z,4.13
2018-07-09T23:04:26.908Z,5.27
2018-07-09T23:06:54.828Z,5.63
2018-07-09T23:09:57.668Z,4.37
2018-07-09T23:12:32.671Z,3.37
2018-07-09T23:17:16.301Z,4.63
2018-07-09T23:22:20.030Z,5.47
2018-07-09T23:24:46.675Z,4.80
2018-07-09T23:27:13.409Z,3.53
2018-07-09T23:29:40.069Z,4.07
2018-07-09T23:32:06.755Z,4.93
2018-07-09T23:34:33.481Z,3.40
2018-07-09T23:37:00.280Z,3.00
2018-07-09T23:39:26.975Z,3.87
2018-07-09T23:41:53.801Z,3.17
2018-07-09T23:44:20.501Z,2.93
2018-07-09T23:46:47.218Z,3.17
2018-07-09T23:49:13.938Z,3.00
2018-07-09T23:51:40.618Z,7.00
2018-07-09T23:54:07.251Z,3.40
2018-07-09T23:58:50.880Z,2.97
